createdAt,value
2023-05-21T00:11:21.329Z,1650.81079
2023-05-21T00:26:23.366Z,1096.73682
2023-05-21T00:41:25.492Z,673.2569
2023-05-21T00:56:27.582Z,1882.83716
2023-05-21T01:11:29.670Z,4886.50146
2023-05-21T01:26:31.702Z,2557.36206
2023-05-21T01:41:33.706Z,7557.97461
2023-05-21T01:56:35.749Z,1720.54541
2023-05-21T02:11:37.858Z,674.52484
2023-05-21T02:26:39.946Z,884.99683
2023-05-21T02:41:42.004Z,406.99713
2023-05-21T02:56:44.081Z,282.74255
2023-05-21T03:11:46.112Z,149.61266
2023-05-21T03:26:48.269Z,51.98405
2023-05-21T03:41:50.383Z,7.60742
2023-05-21T03:56:52.458Z,1.2679
2023-05-21T04:11:54.511Z,0
2023-05-21T04:26:56.561Z,0
2023-05-21T04:41:58.736Z,0
2023-05-21T04:57:01.563Z,0
2023-05-21T05:12:03.618Z,0
2023-05-21T05:27:05.791Z,0
2023-05-21T05:42:07.923Z,0
2023-05-21T05:57:10.058Z,0
2023-05-21T06:12:14.912Z,0
2023-05-21T06:27:17.264Z,0
2023-05-21T06:42:19.333Z,0
2023-05-21T06:57:21.374Z,0
2023-05-21T07:12:23.486Z,0
2023-05-21T07:27:26.227Z,0
2023-05-21T07:42:28.473Z,0
2023-05-21T07:57:30.526Z,0
2023-05-21T08:12:32.686Z,0
2023-05-21T08:27:34.783Z,0
2023-05-21T08:42:37.756Z,0
2023-05-21T08:57:39.949Z,0
2023-05-21T09:12:42.034Z,0
2023-05-21T09:27:44.139Z,0
2023-05-21T09:42:46.217Z,0
2023-05-21T09:57:49.903Z,0
2023-05-21T10:12:53.036Z,0
2023-05-21T10:27:55.043Z,0
2023-05-21T10:42:57.147Z,0
2023-05-21T10:57:59.208Z,0
2023-05-21T11:13:01.330Z,0
2023-05-21T11:28:03.405Z,0
2023-05-21T11:43:05.485Z,3.80371
2023-05-21T11:58:07.592Z,17.75065
2023-05-21T12:13:09.716Z,58.32357
2023-05-21T12:28:11.816Z,93.82488
2023-05-21T12:43:13.898Z,157.22008
2023-05-21T12:58:16.048Z,214.27574
2023-05-21T13:13:18.148Z,355.01306
2023-05-21T13:28:20.179Z,644.09515
2023-05-21T13:43:22.221Z,936.9809
2023-05-21T13:58:24.283Z,1712.93799
2023-05-21T14:13:26.386Z,2573.84473
2023-05-21T14:28:28.538Z,3688.33228
2023-05-21T14:43:30.578Z,5061.47217
2023-05-21T14:58:32.741Z,5098.24121
2023-05-21T15:13:34.831Z,1743.36768
2023-05-21T15:28:36.865Z,898.94379
2023-05-21T15:43:38.954Z,1472.03638
2023-05-21T15:58:41.106Z,699.88287
2023-05-21T16:13:43.147Z,333.45871
2023-05-21T16:28:45.229Z,403.19342
2023-05-21T16:43:47.319Z,1382.01514
2023-05-21T16:58:49.432Z,3915.28687
2023-05-21T17:13:51.539Z,9421.79297
2023-05-21T17:28:53.643Z,9880.77441
2023-05-21T17:43:55.704Z,10538.81641
2023-05-21T17:58:57.824Z,10824.09473
2023-05-21T18:13:59.914Z,5065.27588
2023-05-21T18:29:01.976Z,5657.38672
2023-05-21T18:44:04.031Z,9331.77246
2023-05-21T18:59:06.230Z,8218.55273
2023-05-21T19:14:08.333Z,8448.04297
2023-05-21T19:29:10.439Z,8359.29004
2023-05-21T19:44:12.505Z,5109.65234
2023-05-21T19:59:14.667Z,5244.05029
2023-05-21T20:14:16.732Z,6538.58008
2023-05-21T20:29:18.836Z,6354.73389
2023-05-21T20:44:21.030Z,4812.96289
2023-05-21T20:59:23.106Z,9038.88574
2023-05-21T21:14:25.145Z,7947.22119
2023-05-21T21:29:27.196Z,7703.78369
2023-05-21T21:44:29.276Z,7730.40967
2023-05-21T21:59:31.396Z,2897.16016
2023-05-21T22:14:33.583Z,1801.69128
2023-05-21T22:29:35.723Z,475.46393
2023-05-21T22:44:37.930Z,152.14845
2023-05-21T22:59:40.062Z,144.54103
2023-05-21T23:14:42.127Z,297.9574
2023-05-21T23:29:44.337Z,1039.68115
2023-05-21T23:44:46.559Z,10576.85352
2023-05-21T23:59:48.743Z,11260.25391
